sensor_id;sensor_type;location;lat;lon;timestamp;P1;durP1;ratioP1;P2;durP2;ratioP2
70199;SDS011;57587;55.688;37.600;2023-09-19T00:00:58;30.17;;;14.57;;
70199;SDS011;57587;55.688;37.600;2023-09-19T00:03:25;33.15;;;14.10;;
70199;SDS011;57587;55.688;37.600;2023-09-19T00:05:52;34.90;;;13.97;;
70199;SDS011;57587;55.688;37.600;2023-09-19T00:08:19;36.10;;;15.73;;
70199;SDS011;57587;55.688;37.600;2023-09-19T00:10:50;32.40;;;14.90;;
70199;SDS011;57587;55.688;37.600;2023-09-19T00:13:18;27.60;;;13.70;;
70199;SDS011;57587;55.688;37.600;2023-09-19T00:15:47;29.60;;;13.27;;
70199;SDS011;57587;55.688;37.600;2023-09-19T00:18:18;30.60;;;12.83;;
70199;SDS011;57587;55.688;37.600;2023-09-19T00:20:48;22.73;;;12.77;;
70199;SDS011;57587;55.688;37.600;2023-09-19T00:23:16;29.85;;;14.23;;
70199;SDS011;57587;55.688;37.600;2023-09-19T00:25:46;28.15;;;13.45;;
70199;SDS011;57587;55.688;37.600;2023-09-19T00:28:14;27.27;;;13.65;;
70199;SDS011;57587;55.688;37.600;2023-09-19T00:30:44;26.13;;;13.10;;
70199;SDS011;57587;55.688;37.600;2023-09-19T00:33:17;30.45;;;14.40;;
70199;SDS011;57587;55.688;37.600;2023-09-19T00:35:50;29.90;;;13.93;;
70199;SDS011;57587;55.688;37.600;2023-09-19T00:38:18;33.25;;;14.85;;
70199;SDS011;57587;55.688;37.600;2023-09-19T00:40:49;31.70;;;15.00;;
70199;SDS011;57587;55.688;37.600;2023-09-19T00:43:20;37.93;;;17.13;;
70199;SDS011;57587;55.688;37.600;2023-09-19T00:45:49;37.58;;;17.95;;
70199;SDS011;57587;55.688;37.600;2023-09-19T00:48:18;31.50;;;18.27;;
70199;SDS011;57587;55.688;37.600;2023-09-19T00:50:46;43.78;;;22.15;;
70199;SDS011;57587;55.688;37.600;2023-09-19T00:53:17;42.75;;;22.80;;
70199;SDS011;57587;55.688;37.600;2023-09-19T00:55:47;50.07;;;24.70;;
70199;SDS011;57587;55.688;37.600;2023-09-19T00:58:17;44.80;;;24.73;;
70199;SDS011;57587;55.688;37.600;2023-09-19T01:00:46;47.70;;;24.67;;
70199;SDS011;57587;55.688;37.600;2023-09-19T01:03:14;48.33;;;25.25;;
70199;SDS011;57587;55.688;37.600;2023-09-19T01:05:42;42.15;;;26.00;;
70199;SDS011;57587;55.688;37.600;2023-09-19T01:08:09;53.30;;;27.67;;
70199;SDS011;57587;55.688;37.600;2023-09-19T01:10:44;51.47;;;27.63;;
70199;SDS011;57587;55.688;37.600;2023-09-19T01:13:21;50.40;;;27.25;;
70199;SDS011;57587;55.688;37.600;2023-09-19T01:15:55;49.83;;;27.35;;
70199;SDS011;57587;55.688;37.600;2023-09-19T01:18:47;50.50;;;25.80;;
70199;SDS011;57587;55.688;37.600;2023-09-19T01:30:10;58.10;;;28.10;;
70199;SDS011;57587;55.688;37.600;2023-09-19T01:32:41;50.58;;;29.02;;
70199;SDS011;57587;55.688;37.600;2023-09-19T01:35:10;51.57;;;26.90;;
70199;SDS011;57587;55.688;37.600;2023-09-19T01:37:40;52.95;;;27.33;;
70199;SDS011;57587;55.688;37.600;2023-09-19T01:40:14;59.25;;;29.25;;
70199;SDS011;57587;55.688;37.600;2023-09-19T01:51:20;54.30;;;26.73;;
70199;SDS011;57587;55.688;37.600;2023-09-19T01:53:54;43.95;;;24.70;;
70199;SDS011;57587;55.688;37.600;2023-09-19T01:56:31;49.80;;;25.67;;
70199;SDS011;57587;55.688;37.600;2023-09-19T01:59:07;48.53;;;25.40;;
70199;SDS011;57587;55.688;37.600;2023-09-19T02:01:48;44.37;;;21.13;;
70199;SDS011;57587;55.688;37.600;2023-09-19T02:04:18;43.13;;;20.88;;
70199;SDS011;57587;55.688;37.600;2023-09-19T02:06:45;39.58;;;20.20;;
70199;SDS011;57587;55.688;37.600;2023-09-19T02:09:14;36.80;;;19.23;;
70199;SDS011;57587;55.688;37.600;2023-09-19T02:11:42;33.38;;;18.00;;
70199;SDS011;57587;55.688;37.600;2023-09-19T02:14:09;36.43;;;18.73;;
70199;SDS011;57587;55.688;37.600;2023-09-19T02:16:36;34.92;;;17.85;;
70199;SDS011;57587;55.688;37.600;2023-09-19T02:19:04;35.33;;;17.33;;
70199;SDS011;57587;55.688;37.600;2023-09-19T02:21:32;37.80;;;17.33;;
70199;SDS011;57587;55.688;37.600;2023-09-19T02:24:00;33.90;;;17.13;;
70199;SDS011;57587;55.688;37.600;2023-09-19T02:26:27;31.93;;;16.20;;
70199;SDS011;57587;55.688;37.600;2023-09-19T02:28:54;30.85;;;15.82;;
70199;SDS011;57587;55.688;37.600;2023-09-19T02:31:22;32.20;;;16.42;;
70199;SDS011;57587;55.688;37.600;2023-09-19T02:33:49;33.13;;;16.60;;
70199;SDS011;57587;55.688;37.600;2023-09-19T02:36:16;35.63;;;16.08;;
70199;SDS011;57587;55.688;37.600;2023-09-19T02:38:44;29.73;;;16.03;;
70199;SDS011;57587;55.688;37.600;2023-09-19T02:41:11;30.15;;;16.08;;
70199;SDS011;57587;55.688;37.600;2023-09-19T02:43:38;33.38;;;16.63;;
70199;SDS011;57587;55.688;37.600;2023-09-19T02:46:06;31.70;;;15.68;;
70199;SDS011;57587;55.688;37.600;2023-09-19T02:48:33;29.42;;;15.95;;
70199;SDS011;57587;55.688;37.600;2023-09-19T02:51:02;34.43;;;15.53;;
70199;SDS011;57587;55.688;37.600;2023-09-19T02:53:30;35.72;;;15.95;;
70199;SDS011;57587;55.688;37.600;2023-09-19T02:55:58;29.17;;;14.88;;
70199;SDS011;57587;55.688;37.600;2023-09-19T02:58:26;30.40;;;15.10;;
70199;SDS011;57587;55.688;37.600;2023-09-19T03:00:54;31.35;;;14.75;;
70199;SDS011;57587;55.688;37.600;2023-09-19T03:03:23;33.57;;;16.13;;
70199;SDS011;57587;55.688;37.600;2023-09-19T03:05:50;28.70;;;15.07;;
70199;SDS011;57587;55.688;37.600;2023-09-19T03:08:21;28.05;;;15.55;;
70199;SDS011;57587;55.688;37.600;2023-09-19T03:10:48;35.67;;;17.63;;
70199;SDS011;57587;55.688;37.600;2023-09-19T03:13:16;31.50;;;16.92;;
70199;SDS011;57587;55.688;37.600;2023-09-19T03:15:43;32.97;;;16.00;;
70199;SDS011;57587;55.688;37.600;2023-09-19T03:18:16;35.15;;;16.10;;
70199;SDS011;57587;55.688;37.600;2023-09-19T03:20:52;36.58;;;17.23;;
70199;SDS011;57587;55.688;37.600;2023-09-19T03:23:22;31.95;;;16.90;;
70199;SDS011;57587;55.688;37.600;2023-09-19T03:25:50;30.50;;;16.00;;
70199;SDS011;57587;55.688;37.600;2023-09-19T03:28:18;34.93;;;16.60;;
70199;SDS011;57587;55.688;37.600;2023-09-19T03:33:33;35.63;;;16.50;;
70199;SDS011;57587;55.688;37.600;2023-09-19T03:36:02;30.52;;;16.02;;
70199;SDS011;57587;55.688;37.600;2023-09-19T03:38:33;32.15;;;17.05;;
70199;SDS011;57587;55.688;37.600;2023-09-19T03:41:03;30.33;;;16.53;;
70199;SDS011;57587;55.688;37.600;2023-09-19T03:43:33;40.10;;;16.10;;
70199;SDS011;57587;55.688;37.600;2023-09-19T03:46:02;35.22;;;15.60;;
70199;SDS011;57587;55.688;37.600;2023-09-19T03:48:31;29.83;;;15.68;;
70199;SDS011;57587;55.688;37.600;2023-09-19T03:51:01;34.80;;;15.73;;
70199;SDS011;57587;55.688;37.600;2023-09-19T03:53:29;31.53;;;15.63;;
70199;SDS011;57587;55.688;37.600;2023-09-19T03:55:56;33.00;;;16.00;;
70199;SDS011;57587;55.688;37.600;2023-09-19T03:58:24;28.30;;;15.30;;
70199;SDS011;57587;55.688;37.600;2023-09-19T04:00:54;37.50;;;17.27;;
70199;SDS011;57587;55.688;37.600;2023-09-19T04:03:23;35.45;;;18.13;;
70199;SDS011;57587;55.688;37.600;2023-09-19T04:05:51;33.57;;;17.10;;
70199;SDS011;57587;55.688;37.600;2023-09-19T04:08:18;38.28;;;17.58;;
70199;SDS011;57587;55.688;37.600;2023-09-19T04:10:45;39.85;;;20.15;;
70199;SDS011;57587;55.688;37.600;2023-09-19T04:13:13;38.53;;;18.08;;
70199;SDS011;57587;55.688;37.600;2023-09-19T04:15:40;35.97;;;19.23;;
70199;SDS011;57587;55.688;37.600;2023-09-19T04:18:07;38.40;;;19.40;;
70199;SDS011;57587;55.688;37.600;2023-09-19T04:20:35;40.67;;;20.10;;
70199;SDS011;57587;55.688;37.600;2023-09-19T04:23:02;40.05;;;19.70;;
70199;SDS011;57587;55.688;37.600;2023-09-19T04:25:29;39.03;;;19.10;;
70199;SDS011;57587;55.688;37.600;2023-09-19T04:27:57;45.85;;;19.63;;
70199;SDS011;57587;55.688;37.600;2023-09-19T04:30:25;40.07;;;18.30;;
70199;SDS011;57587;55.688;37.600;2023-09-19T04:32:52;38.72;;;18.13;;
70199;SDS011;57587;55.688;37.600;2023-09-19T04:35:20;39.53;;;18.05;;
70199;SDS011;57587;55.688;37.600;2023-09-19T04:37:47;35.50;;;17.75;;
70199;SDS011;57587;55.688;37.600;2023-09-19T04:40:15;40.35;;;19.08;;
70199;SDS011;57587;55.688;37.600;2023-09-19T04:42:45;35.57;;;17.67;;
70199;SDS011;57587;55.688;37.600;2023-09-19T04:45:13;40.47;;;17.77;;
70199;SDS011;57587;55.688;37.600;2023-09-19T04:47:40;38.30;;;16.98;;
70199;SDS011;57587;55.688;37.600;2023-09-19T04:50:07;34.35;;;16.80;;
70199;SDS011;57587;55.688;37.600;2023-09-19T04:52:41;33.67;;;15.80;;
70199;SDS011;57587;55.688;37.600;2023-09-19T04:55:12;29.70;;;15.37;;
70199;SDS011;57587;55.688;37.600;2023-09-19T04:57:45;33.53;;;15.27;;
70199;SDS011;57587;55.688;37.600;2023-09-19T05:00:22;32.53;;;15.85;;
70199;SDS011;57587;55.688;37.600;2023-09-19T05:02:56;27.55;;;14.88;;
70199;SDS011;57587;55.688;37.600;2023-09-19T05:05:24;36.97;;;15.30;;
70199;SDS011;57587;55.688;37.600;2023-09-19T05:07:53;21.37;;;12.67;;
70199;SDS011;57587;55.688;37.600;2023-09-19T05:10:21;23.88;;;14.52;;
70199;SDS011;57587;55.688;37.600;2023-09-19T05:12:48;26.67;;;15.50;;
70199;SDS011;57587;55.688;37.600;2023-09-19T05:15:19;27.00;;;14.43;;
70199;SDS011;57587;55.688;37.600;2023-09-19T05:17:52;30.60;;;14.13;;
70199;SDS011;57587;55.688;37.600;2023-09-19T05:20:24;23.30;;;12.77;;
70199;SDS011;57587;55.688;37.600;2023-09-19T05:22:57;26.50;;;12.43;;
70199;SDS011;57587;55.688;37.600;2023-09-19T05:25:38;27.25;;;13.80;;
70199;SDS011;57587;55.688;37.600;2023-09-19T05:28:07;32.03;;;13.15;;
70199;SDS011;57587;55.688;37.600;2023-09-19T05:30:35;20.83;;;12.80;;
70199;SDS011;57587;55.688;37.600;2023-09-19T05:33:03;29.93;;;12.60;;
70199;SDS011;57587;55.688;37.600;2023-09-19T05:35:31;19.58;;;11.30;;
70199;SDS011;57587;55.688;37.600;2023-09-19T05:37:59;23.00;;;12.38;;
70199;SDS011;57587;55.688;37.600;2023-09-19T05:40:26;26.77;;;11.57;;
70199;SDS011;57587;55.688;37.600;2023-09-19T05:42:54;25.88;;;11.88;;
70199;SDS011;57587;55.688;37.600;2023-09-19T05:45:21;24.90;;;12.00;;
70199;SDS011;57587;55.688;37.600;2023-09-19T05:47:52;17.98;;;11.95;;
70199;SDS011;57587;55.688;37.600;2023-09-19T05:50:22;22.67;;;11.65;;
70199;SDS011;57587;55.688;37.600;2023-09-19T05:52:52;22.23;;;11.55;;
70199;SDS011;57587;55.688;37.600;2023-09-19T05:55:19;24.70;;;12.50;;
70199;SDS011;57587;55.688;37.600;2023-09-19T05:57:51;22.90;;;11.97;;
70199;SDS011;57587;55.688;37.600;2023-09-19T06:00:19;24.23;;;11.95;;
70199;SDS011;57587;55.688;37.600;2023-09-19T06:02:50;23.58;;;12.18;;
70199;SDS011;57587;55.688;37.600;2023-09-19T06:05:18;20.73;;;12.20;;
70199;SDS011;57587;55.688;37.600;2023-09-19T06:07:47;21.45;;;11.48;;
70199;SDS011;57587;55.688;37.600;2023-09-19T06:10:14;22.00;;;12.97;;
70199;SDS011;57587;55.688;37.600;2023-09-19T06:12:41;24.23;;;12.45;;
70199;SDS011;57587;55.688;37.600;2023-09-19T06:15:12;17.50;;;12.45;;
70199;SDS011;57587;55.688;37.600;2023-09-19T06:17:42;23.95;;;12.90;;
70199;SDS011;57587;55.688;37.600;2023-09-19T06:20:13;21.73;;;12.23;;
70199;SDS011;57587;55.688;37.600;2023-09-19T06:22:41;20.67;;;11.53;;
70199;SDS011;57587;55.688;37.600;2023-09-19T06:25:09;23.77;;;12.52;;
70199;SDS011;57587;55.688;37.600;2023-09-19T06:27:53;19.80;;;12.75;;
70199;SDS011;57587;55.688;37.600;2023-09-19T06:30:22;18.70;;;11.75;;
70199;SDS011;57587;55.688;37.600;2023-09-19T06:32:58;23.38;;;11.48;;
70199;SDS011;57587;55.688;37.600;2023-09-19T06:35:27;16.80;;;11.90;;
70199;SDS011;57587;55.688;37.600;2023-09-19T06:37:56;18.45;;;11.43;;
70199;SDS011;57587;55.688;37.600;2023-09-19T06:40:25;16.48;;;11.07;;
70199;SDS011;57587;55.688;37.600;2023-09-19T06:42:52;23.02;;;11.18;;
70199;SDS011;57587;55.688;37.600;2023-09-19T06:45:20;22.52;;;10.68;;
70199;SDS011;57587;55.688;37.600;2023-09-19T06:47:49;18.33;;;10.57;;
70199;SDS011;57587;55.688;37.600;2023-09-19T06:50:19;18.65;;;9.98;;
70199;SDS011;57587;55.688;37.600;2023-09-19T06:52:53;19.25;;;10.20;;
70199;SDS011;57587;55.688;37.600;2023-09-19T06:55:22;26.73;;;10.82;;
70199;SDS011;57587;55.688;37.600;2023-09-19T06:57:52;19.85;;;10.20;;
70199;SDS011;57587;55.688;37.600;2023-09-19T07:00:21;20.27;;;10.67;;
70199;SDS011;57587;55.688;37.600;2023-09-19T07:05:28;19.77;;;11.07;;
70199;SDS011;57587;55.688;37.600;2023-09-19T07:07:55;19.08;;;11.18;;
70199;SDS011;57587;55.688;37.600;2023-09-19T07:10:26;22.27;;;11.90;;
70199;SDS011;57587;55.688;37.600;2023-09-19T07:12:58;21.30;;;12.63;;
70199;SDS011;57587;55.688;37.600;2023-09-19T07:15:29;21.73;;;11.45;;
70199;SDS011;57587;55.688;37.600;2023-09-19T07:18:02;21.00;;;11.88;;
70199;SDS011;57587;55.688;37.600;2023-09-19T07:20:32;20.08;;;11.52;;
70199;SDS011;57587;55.688;37.600;2023-09-19T07:23:01;20.40;;;11.50;;
70199;SDS011;57587;55.688;37.600;2023-09-19T07:25:28;20.33;;;11.23;;
70199;SDS011;57587;55.688;37.600;2023-09-19T07:27:56;22.80;;;11.65;;
70199;SDS011;57587;55.688;37.600;2023-09-19T07:30:27;22.90;;;12.48;;
70199;SDS011;57587;55.688;37.600;2023-09-19T07:32:55;22.80;;;13.52;;
70199;SDS011;57587;55.688;37.600;2023-09-19T07:35:22;21.00;;;12.23;;
70199;SDS011;57587;55.688;37.600;2023-09-19T07:37:50;18.13;;;11.57;;
70199;SDS011;57587;55.688;37.600;2023-09-19T07:40:19;18.63;;;10.82;;
70199;SDS011;57587;55.688;37.600;2023-09-19T07:42:47;23.73;;;12.20;;
70199;SDS011;57587;55.688;37.600;2023-09-19T07:45:15;22.20;;;12.25;;
70199;SDS011;57587;55.688;37.600;2023-09-19T07:47:47;24.05;;;12.40;;
70199;SDS011;57587;55.688;37.600;2023-09-19T07:50:15;23.50;;;11.80;;
70199;SDS011;57587;55.688;37.600;2023-09-19T07:52:46;23.55;;;12.48;;
70199;SDS011;57587;55.688;37.600;2023-09-19T07:55:20;23.08;;;13.10;;
70199;SDS011;57587;55.688;37.600;2023-09-19T07:57:50;25.05;;;14.15;;
70199;SDS011;57587;55.688;37.600;2023-09-19T08:00:20;25.80;;;15.43;;
70199;SDS011;57587;55.688;37.600;2023-09-19T08:02:47;24.50;;;13.70;;
70199;SDS011;57587;55.688;37.600;2023-09-19T08:05:24;26.73;;;13.02;;
70199;SDS011;57587;55.688;37.600;2023-09-19T08:07:51;25.70;;;13.07;;
70199;SDS011;57587;55.688;37.600;2023-09-19T08:10:19;26.48;;;12.57;;
70199;SDS011;57587;55.688;37.600;2023-09-19T08:12:48;24.50;;;13.52;;
70199;SDS011;57587;55.688;37.600;2023-09-19T08:15:16;29.67;;;12.90;;
70199;SDS011;57587;55.688;37.600;2023-09-19T08:17:46;19.33;;;11.82;;
70199;SDS011;57587;55.688;37.600;2023-09-19T08:20:14;27.45;;;12.95;;
70199;SDS011;57587;55.688;37.600;2023-09-19T08:22:51;21.20;;;12.55;;
70199;SDS011;57587;55.688;37.600;2023-09-19T08:25:21;24.42;;;12.35;;
70199;SDS011;57587;55.688;37.600;2023-09-19T08:27:50;23.67;;;13.27;;
70199;SDS011;57587;55.688;37.600;2023-09-19T08:30:21;25.35;;;12.57;;
70199;SDS011;57587;55.688;37.600;2023-09-19T08:32:56;24.48;;;12.95;;
70199;SDS011;57587;55.688;37.600;2023-09-19T08:35:27;26.10;;;13.45;;
70199;SDS011;57587;55.688;37.600;2023-09-19T08:37:55;20.10;;;13.02;;
70199;SDS011;57587;55.688;37.600;2023-09-19T08:40:23;23.93;;;13.00;;
70199;SDS011;57587;55.688;37.600;2023-09-19T08:42:52;26.05;;;13.18;;
70199;SDS011;57587;55.688;37.600;2023-09-19T08:45:21;27.58;;;13.48;;
70199;SDS011;57587;55.688;37.600;2023-09-19T08:50:27;21.27;;;12.63;;
70199;SDS011;57587;55.688;37.600;2023-09-19T08:52:56;23.57;;;12.53;;
70199;SDS011;57587;55.688;37.600;2023-09-19T08:55:28;26.00;;;11.85;;
70199;SDS011;57587;55.688;37.600;2023-09-19T08:57:59;23.33;;;12.35;;
70199;SDS011;57587;55.688;37.600;2023-09-19T09:00:36;25.90;;;12.55;;
70199;SDS011;57587;55.688;37.600;2023-09-19T09:03:09;24.83;;;12.73;;
70199;SDS011;57587;55.688;37.600;2023-09-19T09:05:38;27.47;;;12.87;;
70199;SDS011;57587;55.688;37.600;2023-09-19T09:08:10;27.48;;;13.40;;
70199;SDS011;57587;55.688;37.600;2023-09-19T09:10:38;26.65;;;13.73;;
70199;SDS011;57587;55.688;37.600;2023-09-19T09:13:07;24.48;;;13.52;;
70199;SDS011;57587;55.688;37.600;2023-09-19T09:15:36;27.50;;;13.43;;
70199;SDS011;57587;55.688;37.600;2023-09-19T09:18:05;30.67;;;13.90;;
70199;SDS011;57587;55.688;37.600;2023-09-19T09:20:32;21.98;;;12.38;;
70199;SDS011;57587;55.688;37.600;2023-09-19T09:22:59;25.63;;;12.93;;
70199;SDS011;57587;55.688;37.600;2023-09-19T09:25:46;26.65;;;13.18;;
70199;SDS011;57587;55.688;37.600;2023-09-19T09:28:19;30.25;;;14.02;;
70199;SDS011;57587;55.688;37.600;2023-09-19T09:30:57;24.70;;;13.60;;
70199;SDS011;57587;55.688;37.600;2023-09-19T09:33:35;22.58;;;13.55;;
70199;SDS011;57587;55.688;37.600;2023-09-19T09:36:03;24.65;;;13.00;;
70199;SDS011;57587;55.688;37.600;2023-09-19T09:38:45;20.90;;;13.13;;
70199;SDS011;57587;55.688;37.600;2023-09-19T09:41:15;26.02;;;12.05;;
70199;SDS011;57587;55.688;37.600;2023-09-19T09:43:54;25.43;;;12.70;;
70199;SDS011;57587;55.688;37.600;2023-09-19T09:46:21;24.73;;;11.95;;
70199;SDS011;57587;55.688;37.600;2023-09-19T09:51:43;22.42;;;11.38;;
70199;SDS011;57587;55.688;37.600;2023-09-19T09:54:27;19.10;;;11.93;;
70199;SDS011;57587;55.688;37.600;2023-09-19T09:57:06;22.37;;;12.70;;
70199;SDS011;57587;55.688;37.600;2023-09-19T09:59:48;28.00;;;12.30;;
70199;SDS011;57587;55.688;37.600;2023-09-19T10:02:17;25.35;;;12.07;;
70199;SDS011;57587;55.688;37.600;2023-09-19T10:04:52;23.05;;;12.32;;
70199;SDS011;57587;55.688;37.600;2023-09-19T10:07:30;21.02;;;12.20;;
70199;SDS011;57587;55.688;37.600;2023-09-19T10:10:31;24.43;;;13.00;;
70199;SDS011;57587;55.688;37.600;2023-09-19T10:13:20;21.92;;;11.82;;
70199;SDS011;57587;55.688;37.600;2023-09-19T10:15:51;25.35;;;12.57;;
70199;SDS011;57587;55.688;37.600;2023-09-19T10:18:21;23.00;;;12.38;;
70199;SDS011;57587;55.688;37.600;2023-09-19T10:20:49;23.67;;;12.73;;
70199;SDS011;57587;55.688;37.600;2023-09-19T10:23:18;24.03;;;12.73;;
70199;SDS011;57587;55.688;37.600;2023-09-19T10:26:03;24.15;;;12.57;;
70199;SDS011;57587;55.688;37.600;2023-09-19T10:28:32;22.05;;;12.95;;
70199;SDS011;57587;55.688;37.600;2023-09-19T10:31:00;21.30;;;12.30;;
70199;SDS011;57587;55.688;37.600;2023-09-19T10:33:28;23.60;;;12.45;;
70199;SDS011;57587;55.688;37.600;2023-09-19T10:36:04;19.20;;;11.37;;
70199;SDS011;57587;55.688;37.600;2023-09-19T10:38:31;20.95;;;11.20;;
70199;SDS011;57587;55.688;37.600;2023-09-19T10:41:02;26.55;;;11.95;;
70199;SDS011;57587;55.688;37.600;2023-09-19T10:43:32;24.02;;;12.15;;
70199;SDS011;57587;55.688;37.600;2023-09-19T10:46:08;23.15;;;11.10;;
70199;SDS011;57587;55.688;37.600;2023-09-19T10:48:39;19.43;;;10.50;;
70199;SDS011;57587;55.688;37.600;2023-09-19T10:51:17;22.15;;;11.25;;
70199;SDS011;57587;55.688;37.600;2023-09-19T10:53:55;20.42;;;10.40;;
70199;SDS011;57587;55.688;37.600;2023-09-19T10:56:31;25.05;;;10.80;;
70199;SDS011;57587;55.688;37.600;2023-09-19T10:59:11;19.50;;;10.38;;
70199;SDS011;57587;55.688;37.600;2023-09-19T11:01:48;20.40;;;10.10;;
70199;SDS011;57587;55.688;37.600;2023-09-19T11:07:00;22.70;;;10.43;;
70199;SDS011;57587;55.688;37.600;2023-09-19T11:15:02;23.50;;;9.93;;
70199;SDS011;57587;55.688;37.600;2023-09-19T11:17:35;25.30;;;11.05;;
70199;SDS011;57587;55.688;37.600;2023-09-19T11:30:49;21.23;;;10.30;;
70199;SDS011;57587;55.688;37.600;2023-09-19T11:46:31;21.73;;;10.18;;
70199;SDS011;57587;55.688;37.600;2023-09-19T11:49:06;21.00;;;10.35;;
70199;SDS011;57587;55.688;37.600;2023-09-19T11:51:40;19.75;;;10.50;;
70199;SDS011;57587;55.688;37.600;2023-09-19T11:54:10;23.53;;;10.23;;
70199;SDS011;57587;55.688;37.600;2023-09-19T11:57:04;25.55;;;9.38;;
70199;SDS011;57587;55.688;37.600;2023-09-19T11:59:33;27.33;;;11.13;;
70199;SDS011;57587;55.688;37.600;2023-09-19T12:02:00;19.27;;;10.05;;
70199;SDS011;57587;55.688;37.600;2023-09-19T12:04:40;20.92;;;10.50;;
70199;SDS011;57587;55.688;37.600;2023-09-19T12:07:13;19.63;;;9.70;;
70199;SDS011;57587;55.688;37.600;2023-09-19T12:09:43;19.23;;;9.85;;
70199;SDS011;57587;55.688;37.600;2023-09-19T12:12:24;21.33;;;9.43;;
70199;SDS011;57587;55.688;37.600;2023-09-19T12:15:11;19.90;;;9.15;;
70199;SDS011;57587;55.688;37.600;2023-09-19T12:17:39;15.13;;;8.68;;
70199;SDS011;57587;55.688;37.600;2023-09-19T12:20:10;17.10;;;8.37;;
70199;SDS011;57587;55.688;37.600;2023-09-19T12:22:48;17.50;;;8.65;;
70199;SDS011;57587;55.688;37.600;2023-09-19T12:25:16;15.77;;;8.60;;
70199;SDS011;57587;55.688;37.600;2023-09-19T12:27:45;14.95;;;8.88;;
70199;SDS011;57587;55.688;37.600;2023-09-19T12:30:14;13.63;;;8.10;;
70199;SDS011;57587;55.688;37.600;2023-09-19T12:32:47;15.63;;;8.67;;
70199;SDS011;57587;55.688;37.600;2023-09-19T12:35:30;14.55;;;7.78;;
70199;SDS011;57587;55.688;37.600;2023-09-19T12:38:02;19.40;;;8.32;;
70199;SDS011;57587;55.688;37.600;2023-09-19T12:40:30;14.95;;;7.95;;
70199;SDS011;57587;55.688;37.600;2023-09-19T12:43:00;18.50;;;8.75;;
70199;SDS011;57587;55.688;37.600;2023-09-19T12:45:33;15.70;;;8.67;;
70199;SDS011;57587;55.688;37.600;2023-09-19T12:48:24;17.60;;;8.18;;
70199;SDS011;57587;55.688;37.600;2023-09-19T12:53:34;17.23;;;8.40;;
70199;SDS011;57587;55.688;37.600;2023-09-19T12:56:11;12.30;;;7.35;;
70199;SDS011;57587;55.688;37.600;2023-09-19T13:01:25;13.70;;;7.78;;
70199;SDS011;57587;55.688;37.600;2023-09-19T13:06:39;13.63;;;7.15;;
70199;SDS011;57587;55.688;37.600;2023-09-19T13:09:07;15.75;;;7.35;;
70199;SDS011;57587;55.688;37.600;2023-09-19T13:11:36;13.87;;;7.40;;
70199;SDS011;57587;55.688;37.600;2023-09-19T13:14:27;13.18;;;7.38;;
70199;SDS011;57587;55.688;37.600;2023-09-19T13:16:59;11.38;;;7.60;;
70199;SDS011;57587;55.688;37.600;2023-09-19T13:19:38;13.55;;;8.00;;
70199;SDS011;57587;55.688;37.600;2023-09-19T13:25:18;19.47;;;7.07;;
70199;SDS011;57587;55.688;37.600;2023-09-19T13:27:47;12.40;;;7.13;;
70199;SDS011;57587;55.688;37.600;2023-09-19T13:30:20;13.35;;;7.13;;
70199;SDS011;57587;55.688;37.600;2023-09-19T13:32:48;14.88;;;7.55;;
70199;SDS011;57587;55.688;37.600;2023-09-19T13:35:15;16.13;;;7.35;;
70199;SDS011;57587;55.688;37.600;2023-09-19T13:37:43;12.90;;;6.97;;
70199;SDS011;57587;55.688;37.600;2023-09-19T13:40:12;14.85;;;7.85;;
70199;SDS011;57587;55.688;37.600;2023-09-19T13:42:40;13.43;;;7.57;;
70199;SDS011;57587;55.688;37.600;2023-09-19T13:45:08;14.10;;;8.32;;
70199;SDS011;57587;55.688;37.600;2023-09-19T13:47:42;13.82;;;7.78;;
70199;SDS011;57587;55.688;37.600;2023-09-19T13:50:10;12.07;;;7.30;;
70199;SDS011;57587;55.688;37.600;2023-09-19T13:52:39;17.25;;;8.20;;
70199;SDS011;57587;55.688;37.600;2023-09-19T13:55:06;16.38;;;8.27;;
70199;SDS011;57587;55.688;37.600;2023-09-19T13:57:34;16.23;;;7.93;;
70199;SDS011;57587;55.688;37.600;2023-09-19T14:00:01;20.83;;;9.32;;
70199;SDS011;57587;55.688;37.600;2023-09-19T14:02:37;23.03;;;9.40;;
70199;SDS011;57587;55.688;37.600;2023-09-19T14:05:06;16.33;;;8.93;;
70199;SDS011;57587;55.688;37.600;2023-09-19T14:07:33;18.67;;;9.07;;
70199;SDS011;57587;55.688;37.600;2023-09-19T14:10:00;16.75;;;8.65;;
70199;SDS011;57587;55.688;37.600;2023-09-19T14:12:28;17.83;;;8.48;;
70199;SDS011;57587;55.688;37.600;2023-09-19T14:14:57;14.70;;;8.73;;
70199;SDS011;57587;55.688;37.600;2023-09-19T14:17:24;20.48;;;9.15;;
70199;SDS011;57587;55.688;37.600;2023-09-19T14:19:52;13.57;;;9.00;;
70199;SDS011;57587;55.688;37.600;2023-09-19T14:22:19;19.52;;;9.60;;
70199;SDS011;57587;55.688;37.600;2023-09-19T14:24:47;22.83;;;10.70;;
70199;SDS011;57587;55.688;37.600;2023-09-19T14:27:14;18.10;;;9.27;;
70199;SDS011;57587;55.688;37.600;2023-09-19T14:29:43;18.63;;;9.52;;
70199;SDS011;57587;55.688;37.600;2023-09-19T14:32:11;20.65;;;9.27;;
70199;SDS011;57587;55.688;37.600;2023-09-19T14:34:38;19.20;;;9.15;;
70199;SDS011;57587;55.688;37.600;2023-09-19T14:37:08;19.35;;;8.90;;
70199;SDS011;57587;55.688;37.600;2023-09-19T14:39:36;17.00;;;8.83;;
70199;SDS011;57587;55.688;37.600;2023-09-19T14:42:06;18.60;;;9.10;;
70199;SDS011;57587;55.688;37.600;2023-09-19T14:44:35;17.98;;;8.40;;
70199;SDS011;57587;55.688;37.600;2023-09-19T14:47:04;14.68;;;8.73;;
70199;SDS011;57587;55.688;37.600;2023-09-19T14:49:35;19.55;;;9.65;;
70199;SDS011;57587;55.688;37.600;2023-09-19T14:52:07;17.70;;;10.03;;
70199;SDS011;57587;55.688;37.600;2023-09-19T14:54:34;18.05;;;8.95;;
70199;SDS011;57587;55.688;37.600;2023-09-19T14:57:05;15.88;;;8.55;;
70199;SDS011;57587;55.688;37.600;2023-09-19T14:59:32;15.55;;;9.00;;
70199;SDS011;57587;55.688;37.600;2023-09-19T15:02:03;19.75;;;9.30;;
70199;SDS011;57587;55.688;37.600;2023-09-19T15:04:31;17.90;;;9.53;;
70199;SDS011;57587;55.688;37.600;2023-09-19T15:07:02;18.02;;;8.27;;
70199;SDS011;57587;55.688;37.600;2023-09-19T15:09:29;16.48;;;8.60;;
70199;SDS011;57587;55.688;37.600;2023-09-19T15:11:59;16.67;;;8.93;;
70199;SDS011;57587;55.688;37.600;2023-09-19T15:14:26;15.73;;;8.50;;
70199;SDS011;57587;55.688;37.600;2023-09-19T15:16:53;17.53;;;8.77;;
70199;SDS011;57587;55.688;37.600;2023-09-19T15:19:20;15.95;;;9.20;;
70199;SDS011;57587;55.688;37.600;2023-09-19T15:21:49;18.17;;;8.85;;
70199;SDS011;57587;55.688;37.600;2023-09-19T15:24:16;18.52;;;8.82;;
70199;SDS011;57587;55.688;37.600;2023-09-19T15:26:44;15.88;;;8.52;;
70199;SDS011;57587;55.688;37.600;2023-09-19T15:29:12;18.63;;;9.17;;
70199;SDS011;57587;55.688;37.600;2023-09-19T15:31:40;13.60;;;8.48;;
70199;SDS011;57587;55.688;37.600;2023-09-19T15:34:10;19.75;;;10.05;;
70199;SDS011;57587;55.688;37.600;2023-09-19T15:36:43;22.25;;;9.40;;
70199;SDS011;57587;55.688;37.600;2023-09-19T15:39:11;22.45;;;9.73;;
70199;SDS011;57587;55.688;37.600;2023-09-19T15:41:39;27.57;;;10.13;;